THY9YB LTFM-HEAX
Flight info
| Callsign | THY9YB |
|---|---|
| Flight time | 1h 40m |
| Altitude | 33000 |
| Route | RATVU1D/35L RATVU UT35 TEKDO DCT TOMBI M855 NABSI P557 GOMGO Q613 ORDIX V604 ALPAM |
| Aircraft | A321/M-SDE3FGHIRWY/LB1 |
Departure
| Time | 2026-05-06 15:55 |
|---|---|
| Airport | İstanbul Airport (LTFM) |
Arrival
| Time | 2026-05-06 17:36 |
|---|---|
| Airport | Alexandria International Airport (HEAX) |
| Time | Latitude | Longitude | Altitude | Speed | Heading |
|---|---|---|---|---|---|
| 2026-05-06 15:33 | 41.25722 | 28.73754 | 312 ft | 0 kts | 359° |
| 2026-05-06 15:43 | 41.25714 | 28.73754 | 311 ft | 4 kts | 359° |
| 2026-05-06 15:43 | 41.25687 | 28.73755 | 311 ft | 4 kts | 359° |
| 2026-05-06 15:43 | 41.25663 | 28.73756 | 310 ft | 2 kts | 359° |
| 2026-05-06 15:43 | 41.25638 | 28.73753 | 310 ft | 4 kts | 22° |
| 2026-05-06 15:44 | 41.25618 | 28.73733 | 310 ft | 4 kts | 63° |
| 2026-05-06 15:44 | 41.25613 | 28.73702 | 310 ft | 4 kts | 88° |
| 2026-05-06 15:44 | 41.25612 | 28.73667 | 310 ft | 4 kts | 88° |
| 2026-05-06 15:44 | 41.25611 | 28.73631 | 310 ft | 4 kts | 88° |
| 2026-05-06 15:45 | 41.25610 | 28.73595 | 310 ft | 4 kts | 89° |
| 2026-05-06 15:45 | 41.25610 | 28.73559 | 310 ft | 4 kts | 91° |
| 2026-05-06 15:45 | 41.25610 | 28.73527 | 309 ft | 4 kts | 71° |
| 2026-05-06 15:45 | 41.25595 | 28.73502 | 309 ft | 4 kts | 22° |
| 2026-05-06 15:46 | 41.25569 | 28.73494 | 308 ft | 4 kts | 4° |
| 2026-05-06 15:46 | 41.25544 | 28.73493 | 309 ft | 2 kts | 358° |
| 2026-05-06 15:46 | 41.25543 | 28.73493 | 309 ft | 0 kts | 358° |
| 2026-05-06 15:50 | 41.25545 | 28.73493 | 308 ft | 1 kts | 358° |
| 2026-05-06 15:50 | 41.25577 | 28.73491 | 309 ft | 7 kts | 356° |
| 2026-05-06 15:50 | 41.25611 | 28.73458 | 310 ft | 7 kts | 289° |
| 2026-05-06 15:51 | 41.25609 | 28.73354 | 310 ft | 14 kts | 269° |
| 2026-05-06 15:51 | 41.25639 | 28.73253 | 311 ft | 11 kts | 334° |
| 2026-05-06 15:51 | 41.25713 | 28.73244 | 311 ft | 11 kts | 359° |
| 2026-05-06 15:51 | 41.25817 | 28.73242 | 313 ft | 19 kts | 359° |
| 2026-05-06 15:52 | 41.25950 | 28.73239 | 312 ft | 19 kts | 359° |
| 2026-05-06 15:52 | 41.26085 | 28.73237 | 313 ft | 19 kts | 359° |
| 2026-05-06 15:52 | 41.26196 | 28.73228 | 313 ft | 11 kts | 335° |
| 2026-05-06 15:52 | 41.26219 | 28.73138 | 312 ft | 11 kts | 270° |
| 2026-05-06 15:53 | 41.26218 | 28.73033 | 312 ft | 10 kts | 269° |
| 2026-05-06 15:53 | 41.26217 | 28.72988 | 312 ft | 2 kts | 268° |
| 2026-05-06 15:53 | 41.26216 | 28.72965 | 312 ft | 3 kts | 268° |
| 2026-05-06 15:53 | 41.26215 | 28.72885 | 313 ft | 14 kts | 269° |
| 2026-05-06 15:54 | 41.26214 | 28.72739 | 314 ft | 17 kts | 269° |
| 2026-05-06 15:54 | 41.26212 | 28.72587 | 313 ft | 11 kts | 270° |
| 2026-05-06 15:54 | 41.26243 | 28.72527 | 314 ft | 11 kts | 343° |
| 2026-05-06 15:54 | 41.26436 | 28.72521 | 313 ft | 57 kts | 359° |
| 2026-05-06 15:55 | 41.27057 | 28.72507 | 300 ft | 120 kts | 359° |
| 2026-05-06 15:55 | 41.28082 | 28.72484 | 274 ft | 171 kts | 359° |
| 2026-05-06 15:55 | 41.29342 | 28.72447 | 638 ft | 183 kts | 1° |
| 2026-05-06 15:55 | 41.30621 | 28.72409 | 1295 ft | 184 kts | 0° |
| 2026-05-06 15:56 | 41.31926 | 28.72410 | 1666 ft | 196 kts | 1° |
| 2026-05-06 15:56 | 41.33360 | 28.72437 | 1800 ft | 217 kts | 1° |
| 2026-05-06 15:56 | 41.34955 | 28.72470 | 1921 ft | 242 kts | 1° |
| 2026-05-06 15:56 | 41.36693 | 28.72415 | 2381 ft | 254 kts | 348° |
| 2026-05-06 15:57 | 41.38240 | 28.71331 | 3038 ft | 256 kts | 312° |
| 2026-05-06 15:57 | 41.39003 | 28.69220 | 3805 ft | 258 kts | 279° |
| 2026-05-06 15:57 | 41.39018 | 28.66821 | 4553 ft | 261 kts | 266° |
| 2026-05-06 15:57 | 41.38778 | 28.64421 | 5299 ft | 262 kts | 264° |
| 2026-05-06 15:58 | 41.38514 | 28.62012 | 5998 ft | 264 kts | 266° |
| 2026-05-06 15:58 | 41.38274 | 28.59580 | 6668 ft | 268 kts | 262° |
| 2026-05-06 15:58 | 41.37501 | 28.57288 | 7261 ft | 281 kts | 236° |
| 2026-05-06 15:58 | 41.35964 | 28.55611 | 7835 ft | 295 kts | 207° |
| 2026-05-06 15:59 | 41.33929 | 28.55088 | 8417 ft | 304 kts | 179° |
| 2026-05-06 15:59 | 41.31801 | 28.55244 | 9035 ft | 308 kts | 179° |
| 2026-05-06 15:59 | 41.29645 | 28.55316 | 9655 ft | 312 kts | 180° |
| 2026-05-06 15:59 | 41.27468 | 28.55442 | 10262 ft | 315 kts | 173° |
| 2026-05-06 16:00 | 41.25282 | 28.56128 | 10459 ft | 334 kts | 158° |
| 2026-05-06 16:00 | 41.23207 | 28.57602 | 10589 ft | 352 kts | 142° |
| 2026-05-06 16:00 | 41.21354 | 28.59826 | 10707 ft | 368 kts | 133° |
| 2026-05-06 16:00 | 41.19484 | 28.62281 | 10835 ft | 386 kts | 133° |
| 2026-05-06 16:01 | 41.17531 | 28.64809 | 11183 ft | 396 kts | 134° |
| 2026-05-06 16:01 | 41.15539 | 28.67359 | 11728 ft | 399 kts | 134° |
| 2026-05-06 16:01 | 41.13537 | 28.69932 | 12296 ft | 402 kts | 132° |
| 2026-05-06 16:01 | 41.11771 | 28.72794 | 12870 ft | 402 kts | 122° |
| 2026-05-06 16:02 | 41.10233 | 28.75907 | 13446 ft | 404 kts | 121° |
| 2026-05-06 16:02 | 41.08694 | 28.79046 | 14013 ft | 407 kts | 121° |
| 2026-05-06 16:02 | 41.07146 | 28.82203 | 14519 ft | 411 kts | 121° |
| 2026-05-06 16:02 | 41.05509 | 28.85322 | 15007 ft | 416 kts | 128° |
| 2026-05-06 16:03 | 41.03418 | 28.88017 | 15490 ft | 422 kts | 141° |
| 2026-05-06 16:03 | 41.00903 | 28.90052 | 15975 ft | 427 kts | 155° |
| 2026-05-06 16:03 | 40.98084 | 28.91323 | 16478 ft | 430 kts | 168° |
| 2026-05-06 16:03 | 40.95088 | 28.91761 | 16972 ft | 433 kts | 181° |
| 2026-05-06 16:04 | 40.92111 | 28.91475 | 17446 ft | 435 kts | 187° |
| 2026-05-06 16:04 | 40.89088 | 28.91093 | 17926 ft | 438 kts | 186° |
| 2026-05-06 16:04 | 40.86024 | 28.90989 | 18375 ft | 442 kts | 178° |
| 2026-05-06 16:04 | 40.82927 | 28.91239 | 18767 ft | 445 kts | 177° |
| 2026-05-06 16:05 | 40.79855 | 28.91493 | 19132 ft | 448 kts | 177° |
| 2026-05-06 16:05 | 40.76729 | 28.91753 | 19488 ft | 452 kts | 178° |
| 2026-05-06 16:05 | 40.73585 | 28.92009 | 19864 ft | 455 kts | 178° |
| 2026-05-06 16:05 | 40.70412 | 28.92263 | 20248 ft | 457 kts | 178° |
| 2026-05-06 16:06 | 40.67220 | 28.92516 | 20628 ft | 460 kts | 178° |
| 2026-05-06 16:06 | 40.64003 | 28.92772 | 20993 ft | 463 kts | 178° |
| 2026-05-06 16:06 | 40.60779 | 28.93028 | 21359 ft | 465 kts | 177° |
| 2026-05-06 16:06 | 40.57597 | 28.93582 | 21720 ft | 469 kts | 168° |
| 2026-05-06 16:07 | 40.54455 | 28.94797 | 22082 ft | 472 kts | 159° |
| 2026-05-06 16:07 | 40.51480 | 28.96665 | 22454 ft | 474 kts | 149° |
| 2026-05-06 16:07 | 40.48698 | 28.99015 | 22824 ft | 475 kts | 146° |
| 2026-05-06 16:07 | 40.45923 | 29.01401 | 23166 ft | 478 kts | 146° |
| 2026-05-06 16:08 | 40.43123 | 29.03793 | 23512 ft | 480 kts | 146° |
| 2026-05-06 16:08 | 40.40313 | 29.06183 | 23813 ft | 483 kts | 146° |
| 2026-05-06 16:08 | 40.37518 | 29.08555 | 24086 ft | 485 kts | 146° |
| 2026-05-06 16:08 | 40.34672 | 29.10972 | 24368 ft | 487 kts | 146° |
| 2026-05-06 16:09 | 40.31819 | 29.13393 | 24633 ft | 490 kts | 147° |
| 2026-05-06 16:09 | 40.28937 | 29.15834 | 24898 ft | 492 kts | 147° |
| 2026-05-06 16:09 | 40.26058 | 29.18269 | 25156 ft | 494 kts | 147° |
| 2026-05-06 16:09 | 40.23189 | 29.20691 | 25409 ft | 497 kts | 147° |
| 2026-05-06 16:10 | 40.20267 | 29.23136 | 25669 ft | 499 kts | 149° |
| 2026-05-06 16:10 | 40.17170 | 29.25217 | 25938 ft | 502 kts | 158° |
| 2026-05-06 16:10 | 40.13890 | 29.26831 | 26214 ft | 504 kts | 161° |
| 2026-05-06 16:10 | 40.10574 | 29.28400 | 26466 ft | 506 kts | 161° |
| 2026-05-06 16:11 | 40.07258 | 29.29967 | 26848 ft | 506 kts | 161° |
| 2026-05-06 16:11 | 40.03944 | 29.31539 | 27239 ft | 506 kts | 161° |
| 2026-05-06 16:11 | 40.00639 | 29.33108 | 27614 ft | 505 kts | 161° |
| 2026-05-06 16:11 | 39.97370 | 29.34660 | 27972 ft | 506 kts | 161° |
| 2026-05-06 16:12 | 39.94051 | 29.36236 | 28293 ft | 507 kts | 161° |
| 2026-05-06 16:12 | 39.90729 | 29.37811 | 28635 ft | 507 kts | 160° |
| 2026-05-06 16:12 | 39.87429 | 29.39452 | 28961 ft | 507 kts | 159° |
| 2026-05-06 16:12 | 39.84167 | 29.41198 | 29341 ft | 507 kts | 158° |
| 2026-05-06 16:13 | 39.80960 | 29.43004 | 29701 ft | 507 kts | 157° |
| 2026-05-06 16:13 | 39.77726 | 29.44862 | 30057 ft | 507 kts | 156° |
| 2026-05-06 16:13 | 39.74489 | 29.46716 | 30366 ft | 507 kts | 157° |
| 2026-05-06 16:13 | 39.71261 | 29.48537 | 30676 ft | 506 kts | 157° |
| 2026-05-06 16:14 | 39.68014 | 29.50334 | 30978 ft | 505 kts | 158° |
| 2026-05-06 16:14 | 39.64776 | 29.52099 | 31284 ft | 505 kts | 158° |
| 2026-05-06 16:14 | 39.61566 | 29.53804 | 31584 ft | 504 kts | 159° |
| 2026-05-06 16:14 | 39.58306 | 29.55458 | 31934 ft | 502 kts | 160° |
| 2026-05-06 16:15 | 39.55024 | 29.57070 | 32239 ft | 501 kts | 160° |
| 2026-05-06 16:15 | 39.51758 | 29.58650 | 32556 ft | 500 kts | 160° |
| 2026-05-06 16:15 | 39.48492 | 29.60235 | 32842 ft | 500 kts | 160° |
| 2026-05-06 16:15 | 39.45231 | 29.61829 | 33024 ft | 500 kts | 160° |
| 2026-05-06 16:16 | 39.38764 | 29.65029 | 33061 ft | 501 kts | 160° |
| 2026-05-06 16:16 | 39.32234 | 29.68293 | 33077 ft | 501 kts | 160° |
| 2026-05-06 16:17 | 39.25761 | 29.71518 | 33061 ft | 501 kts | 160° |
| 2026-05-06 16:17 | 39.19237 | 29.74746 | 33076 ft | 501 kts | 160° |
| 2026-05-06 16:18 | 39.12707 | 29.77969 | 33055 ft | 501 kts | 160° |
| 2026-05-06 16:18 | 39.06220 | 29.81167 | 33080 ft | 502 kts | 160° |
| 2026-05-06 16:19 | 38.99691 | 29.84373 | 33088 ft | 501 kts | 160° |
| 2026-05-06 16:19 | 38.93204 | 29.87547 | 33080 ft | 501 kts | 161° |
| 2026-05-06 16:20 | 38.86673 | 29.90738 | 33087 ft | 501 kts | 161° |
| 2026-05-06 16:20 | 38.80126 | 29.93867 | 33090 ft | 501 kts | 161° |
| 2026-05-06 16:21 | 38.73620 | 29.96935 | 33091 ft | 501 kts | 161° |
| 2026-05-06 16:21 | 38.67072 | 30.00027 | 33092 ft | 500 kts | 161° |
| 2026-05-06 16:22 | 38.60568 | 30.03094 | 33096 ft | 500 kts | 161° |
| 2026-05-06 16:22 | 38.54027 | 30.06188 | 33092 ft | 500 kts | 161° |
| 2026-05-06 16:23 | 38.47485 | 30.09280 | 33081 ft | 500 kts | 161° |
| 2026-05-06 16:23 | 38.40977 | 30.12340 | 33108 ft | 500 kts | 161° |
| 2026-05-06 16:24 | 38.34428 | 30.15387 | 33101 ft | 500 kts | 165° |
| 2026-05-06 16:24 | 38.27691 | 30.17528 | 33095 ft | 498 kts | 169° |
| 2026-05-06 16:25 | 38.20973 | 30.19522 | 33100 ft | 498 kts | 169° |
| 2026-05-06 16:25 | 38.14205 | 30.21535 | 33111 ft | 498 kts | 169° |
| 2026-05-06 16:26 | 38.07459 | 30.23550 | 33114 ft | 498 kts | 169° |
| 2026-05-06 16:26 | 38.00705 | 30.25564 | 33121 ft | 498 kts | 169° |
| 2026-05-06 16:27 | 37.93996 | 30.27551 | 33125 ft | 497 kts | 169° |
| 2026-05-06 16:27 | 37.87247 | 30.29551 | 33125 ft | 497 kts | 169° |
| 2026-05-06 16:28 | 37.80546 | 30.31536 | 33114 ft | 497 kts | 169° |
| 2026-05-06 16:28 | 37.73800 | 30.33528 | 33122 ft | 497 kts | 169° |
| 2026-05-06 16:29 | 37.67066 | 30.35511 | 33121 ft | 496 kts | 169° |
| 2026-05-06 16:29 | 37.60324 | 30.37496 | 33099 ft | 496 kts | 170° |
| 2026-05-06 16:30 | 37.55864 | 30.38807 | 33111 ft | 496 kts | 170° |
| 2026-05-06 16:30 | 37.46908 | 30.41441 | 33126 ft | 495 kts | 170° |
| 2026-05-06 16:31 | 37.40194 | 30.43391 | 33126 ft | 494 kts | 170° |
| 2026-05-06 16:31 | 37.33535 | 30.45333 | 33115 ft | 493 kts | 170° |
| 2026-05-06 16:32 | 37.26839 | 30.47282 | 33119 ft | 492 kts | 170° |
| 2026-05-06 16:32 | 37.20212 | 30.49211 | 33114 ft | 491 kts | 170° |
| 2026-05-06 16:33 | 37.13547 | 30.51149 | 33095 ft | 491 kts | 170° |
| 2026-05-06 16:34 | 37.03579 | 30.54042 | 33097 ft | 491 kts | 171° |
| 2026-05-06 16:34 | 36.98026 | 30.55647 | 33097 ft | 491 kts | 171° |
| 2026-05-06 16:35 | 36.91350 | 30.57564 | 33082 ft | 492 kts | 171° |
| 2026-05-06 16:35 | 36.83545 | 30.59812 | 33077 ft | 493 kts | 171° |
| 2026-05-06 16:36 | 36.77981 | 30.61411 | 33079 ft | 493 kts | 171° |
| 2026-05-06 16:36 | 36.71321 | 30.63324 | 33083 ft | 494 kts | 171° |
| 2026-05-06 16:37 | 36.64607 | 30.65253 | 33059 ft | 495 kts | 171° |
| 2026-05-06 16:37 | 36.57871 | 30.67177 | 33060 ft | 496 kts | 171° |
| 2026-05-06 16:38 | 36.51127 | 30.69101 | 33065 ft | 497 kts | 171° |
| 2026-05-06 16:38 | 36.44401 | 30.71016 | 33076 ft | 498 kts | 171° |
| 2026-05-06 16:39 | 36.37644 | 30.72938 | 33082 ft | 498 kts | 171° |
| 2026-05-06 16:39 | 36.30913 | 30.74850 | 33084 ft | 498 kts | 171° |
| 2026-05-06 16:40 | 36.24135 | 30.76774 | 33051 ft | 498 kts | 171° |
| 2026-05-06 16:40 | 36.17399 | 30.78690 | 33057 ft | 499 kts | 171° |
| 2026-05-06 16:41 | 36.10612 | 30.80607 | 33064 ft | 500 kts | 171° |
| 2026-05-06 16:41 | 36.03807 | 30.82372 | 33071 ft | 496 kts | 178° |
| 2026-05-06 16:42 | 35.96987 | 30.82870 | 33069 ft | 492 kts | 182° |
| 2026-05-06 16:42 | 35.90124 | 30.83284 | 33085 ft | 492 kts | 182° |
| 2026-05-06 16:43 | 35.83302 | 30.83698 | 33084 ft | 492 kts | 182° |
| 2026-05-06 16:43 | 35.76450 | 30.84115 | 33063 ft | 493 kts | 183° |
| 2026-05-06 16:44 | 35.69617 | 30.84530 | 33069 ft | 493 kts | 183° |
| 2026-05-06 16:44 | 35.62728 | 30.84942 | 33070 ft | 494 kts | 183° |
| 2026-05-06 16:45 | 35.55889 | 30.85272 | 33053 ft | 493 kts | 185° |
| 2026-05-06 16:45 | 35.49029 | 30.85467 | 33077 ft | 492 kts | 185° |
| 2026-05-06 16:46 | 35.42159 | 30.85641 | 33088 ft | 493 kts | 185° |
| 2026-05-06 16:46 | 35.35336 | 30.85869 | 33056 ft | 493 kts | 185° |
| 2026-05-06 16:47 | 35.28477 | 30.86129 | 33097 ft | 492 kts | 185° |
| 2026-05-06 16:47 | 35.21671 | 30.86353 | 33101 ft | 491 kts | 185° |
| 2026-05-06 16:48 | 35.14828 | 30.86575 | 33100 ft | 490 kts | 185° |
| 2026-05-06 16:48 | 35.08000 | 30.86804 | 33094 ft | 490 kts | 185° |
| 2026-05-06 16:49 | 35.01217 | 30.87032 | 33103 ft | 489 kts | 185° |
| 2026-05-06 16:49 | 34.94400 | 30.87257 | 33105 ft | 489 kts | 185° |
| 2026-05-06 16:50 | 34.87635 | 30.87478 | 33085 ft | 488 kts | 185° |
| 2026-05-06 16:50 | 34.80838 | 30.87705 | 33104 ft | 488 kts | 185° |
| 2026-05-06 16:51 | 34.74050 | 30.87925 | 33103 ft | 487 kts | 185° |
| 2026-05-06 16:51 | 34.67267 | 30.88153 | 33082 ft | 487 kts | 185° |
| 2026-05-06 16:52 | 34.60530 | 30.88378 | 33104 ft | 486 kts | 185° |
| 2026-05-06 16:52 | 34.53793 | 30.88676 | 33111 ft | 486 kts | 184° |
| 2026-05-06 16:53 | 34.47029 | 30.89037 | 33115 ft | 486 kts | 184° |
| 2026-05-06 16:53 | 34.40275 | 30.89400 | 33108 ft | 484 kts | 184° |
| 2026-05-06 16:54 | 34.33536 | 30.89731 | 33113 ft | 484 kts | 184° |
| 2026-05-06 16:54 | 34.26813 | 30.90048 | 33115 ft | 483 kts | 184° |
| 2026-05-06 16:55 | 34.20121 | 30.90384 | 33114 ft | 483 kts | 184° |
| 2026-05-06 16:55 | 34.13393 | 30.90767 | 33113 ft | 483 kts | 183° |
| 2026-05-06 16:56 | 34.06672 | 30.91149 | 33118 ft | 483 kts | 183° |
| 2026-05-06 16:56 | 33.99991 | 30.91522 | 33095 ft | 482 kts | 183° |
| 2026-05-06 16:57 | 33.93279 | 30.91894 | 33116 ft | 481 kts | 184° |
| 2026-05-06 16:57 | 33.86639 | 30.92168 | 33120 ft | 479 kts | 184° |
| 2026-05-06 16:58 | 33.79957 | 30.92378 | 33122 ft | 479 kts | 184° |
| 2026-05-06 16:58 | 33.73297 | 30.92598 | 33116 ft | 478 kts | 184° |
| 2026-05-06 16:59 | 33.66651 | 30.92862 | 33135 ft | 477 kts | 184° |
| 2026-05-06 16:59 | 33.60065 | 30.93131 | 33118 ft | 476 kts | 184° |
| 2026-05-06 17:00 | 33.53436 | 30.93376 | 33106 ft | 475 kts | 184° |
| 2026-05-06 17:00 | 33.46830 | 30.93624 | 33120 ft | 474 kts | 184° |
| 2026-05-06 17:01 | 33.40248 | 30.93876 | 33120 ft | 473 kts | 184° |
| 2026-05-06 17:01 | 33.33670 | 30.94120 | 33118 ft | 472 kts | 184° |
| 2026-05-06 17:02 | 33.27125 | 30.94367 | 33117 ft | 471 kts | 183° |
| 2026-05-06 17:02 | 33.20607 | 30.94609 | 33120 ft | 471 kts | 183° |
| 2026-05-06 17:03 | 33.14141 | 30.94162 | 33120 ft | 458 kts | 199° |
| 2026-05-06 17:03 | 33.08394 | 30.91280 | 33098 ft | 443 kts | 218° |
| 2026-05-06 17:04 | 33.03899 | 30.86437 | 33104 ft | 431 kts | 234° |
| 2026-05-06 17:04 | 33.00041 | 30.80985 | 33108 ft | 432 kts | 234° |
| 2026-05-06 17:05 | 32.96125 | 30.75518 | 33112 ft | 433 kts | 234° |
| 2026-05-06 17:05 | 32.92209 | 30.70058 | 33100 ft | 433 kts | 234° |
| 2026-05-06 17:06 | 32.88290 | 30.64592 | 33111 ft | 434 kts | 234° |
| 2026-05-06 17:06 | 32.84391 | 30.59160 | 33116 ft | 434 kts | 233° |
| 2026-05-06 17:07 | 32.80464 | 30.53688 | 33117 ft | 434 kts | 234° |
| 2026-05-06 17:07 | 32.76537 | 30.48213 | 33122 ft | 434 kts | 233° |
| 2026-05-06 17:08 | 32.72623 | 30.42777 | 33109 ft | 435 kts | 233° |
| 2026-05-06 17:08 | 32.68683 | 30.37315 | 33115 ft | 435 kts | 233° |
| 2026-05-06 17:09 | 32.64730 | 30.31855 | 33123 ft | 436 kts | 233° |
| 2026-05-06 17:09 | 32.60801 | 30.26432 | 33124 ft | 436 kts | 233° |
| 2026-05-06 17:10 | 32.56837 | 30.20962 | 33107 ft | 436 kts | 233° |
| 2026-05-06 17:10 | 32.52867 | 30.15496 | 33117 ft | 437 kts | 233° |
| 2026-05-06 17:11 | 32.48919 | 30.10068 | 33128 ft | 437 kts | 233° |
| 2026-05-06 17:11 | 32.44945 | 30.04597 | 33127 ft | 437 kts | 233° |
| 2026-05-06 17:12 | 32.40995 | 29.99162 | 33118 ft | 437 kts | 232° |
| 2026-05-06 17:12 | 32.37000 | 29.93688 | 33119 ft | 438 kts | 232° |
| 2026-05-06 17:13 | 32.33011 | 29.88234 | 33125 ft | 438 kts | 232° |
| 2026-05-06 17:13 | 32.29010 | 29.82781 | 33124 ft | 439 kts | 232° |
| 2026-05-06 17:14 | 32.25023 | 29.77352 | 33127 ft | 439 kts | 232° |
| 2026-05-06 17:14 | 32.21025 | 29.71902 | 33128 ft | 439 kts | 232° |
| 2026-05-06 17:15 | 32.17018 | 29.66448 | 33131 ft | 439 kts | 232° |
| 2026-05-06 17:15 | 32.13020 | 29.61025 | 33134 ft | 439 kts | 232° |
| 2026-05-06 17:16 | 32.09008 | 29.55583 | 32920 ft | 439 kts | 232° |
| 2026-05-06 17:16 | 32.07004 | 29.52865 | 32656 ft | 439 kts | 232° |
| 2026-05-06 17:16 | 32.05002 | 29.50150 | 32390 ft | 440 kts | 232° |
| 2026-05-06 17:16 | 32.03015 | 29.47455 | 32135 ft | 441 kts | 232° |
| 2026-05-06 17:17 | 32.00999 | 29.44724 | 31881 ft | 441 kts | 232° |
| 2026-05-06 17:17 | 31.98979 | 29.41993 | 31630 ft | 442 kts | 232° |
| 2026-05-06 17:17 | 31.96954 | 29.39261 | 31387 ft | 443 kts | 232° |
| 2026-05-06 17:17 | 31.94919 | 29.36517 | 31138 ft | 444 kts | 232° |
| 2026-05-06 17:18 | 31.92885 | 29.33774 | 30898 ft | 444 kts | 232° |
| 2026-05-06 17:18 | 31.90842 | 29.31020 | 30653 ft | 445 kts | 232° |
| 2026-05-06 17:18 | 31.88800 | 29.28273 | 30402 ft | 446 kts | 232° |
| 2026-05-06 17:18 | 31.86779 | 29.25555 | 30163 ft | 448 kts | 232° |
| 2026-05-06 17:19 | 31.84720 | 29.22787 | 29314 ft | 452 kts | 232° |
| 2026-05-06 17:19 | 31.82634 | 29.19980 | 28298 ft | 456 kts | 232° |
| 2026-05-06 17:19 | 31.80528 | 29.17151 | 27191 ft | 462 kts | 232° |
| 2026-05-06 17:19 | 31.78194 | 29.14502 | 26122 ft | 472 kts | 219° |
| 2026-05-06 17:20 | 31.75262 | 29.12648 | 24970 ft | 487 kts | 201° |
| 2026-05-06 17:20 | 31.71920 | 29.11958 | 24252 ft | 491 kts | 184° |
| 2026-05-06 17:20 | 31.69650 | 29.12144 | 23726 ft | 495 kts | 172° |
| 2026-05-06 17:20 | 31.66389 | 29.13428 | 22824 ft | 497 kts | 153° |
| 2026-05-06 17:21 | 31.62636 | 29.16476 | 21784 ft | 492 kts | 144° |
| 2026-05-06 17:21 | 31.59910 | 29.18898 | 21002 ft | 488 kts | 143° |
| 2026-05-06 17:21 | 31.57225 | 29.21305 | 20223 ft | 484 kts | 143° |
| 2026-05-06 17:21 | 31.55422 | 29.22925 | 19696 ft | 482 kts | 143° |
| 2026-05-06 17:22 | 31.52793 | 29.25284 | 18934 ft | 479 kts | 143° |
| 2026-05-06 17:22 | 31.50161 | 29.27638 | 18246 ft | 473 kts | 144° |
| 2026-05-06 17:22 | 31.47537 | 29.29970 | 17486 ft | 468 kts | 144° |
| 2026-05-06 17:22 | 31.44955 | 29.32259 | 16693 ft | 463 kts | 144° |
| 2026-05-06 17:23 | 31.42404 | 29.34520 | 16031 ft | 457 kts | 144° |
| 2026-05-06 17:23 | 31.39886 | 29.36752 | 15377 ft | 451 kts | 144° |
| 2026-05-06 17:23 | 31.37426 | 29.38929 | 14759 ft | 445 kts | 144° |
| 2026-05-06 17:23 | 31.34957 | 29.41106 | 14153 ft | 441 kts | 143° |
| 2026-05-06 17:24 | 31.32507 | 29.43262 | 13488 ft | 438 kts | 143° |
| 2026-05-06 17:24 | 31.30080 | 29.45402 | 12859 ft | 434 kts | 143° |
| 2026-05-06 17:24 | 31.27680 | 29.47522 | 12222 ft | 431 kts | 143° |
| 2026-05-06 17:24 | 31.25317 | 29.49613 | 11569 ft | 428 kts | 143° |
| 2026-05-06 17:25 | 31.22958 | 29.51694 | 11210 ft | 416 kts | 143° |
| 2026-05-06 17:25 | 31.20686 | 29.53692 | 11084 ft | 398 kts | 143° |
| 2026-05-06 17:25 | 31.18516 | 29.55601 | 10967 ft | 381 kts | 143° |
| 2026-05-06 17:25 | 31.16464 | 29.57408 | 10849 ft | 365 kts | 143° |
| 2026-05-06 17:26 | 31.14473 | 29.59161 | 10729 ft | 351 kts | 143° |
| 2026-05-06 17:26 | 31.12556 | 29.60848 | 10602 ft | 338 kts | 143° |
| 2026-05-06 17:26 | 31.10708 | 29.62471 | 10491 ft | 326 kts | 143° |
| 2026-05-06 17:26 | 31.08922 | 29.64037 | 10352 ft | 315 kts | 143° |
| 2026-05-06 17:27 | 31.07202 | 29.65546 | 10050 ft | 312 kts | 143° |
| 2026-05-06 17:27 | 31.05457 | 29.67075 | 9654 ft | 311 kts | 142° |
| 2026-05-06 17:27 | 31.03738 | 29.68583 | 9318 ft | 308 kts | 142° |
| 2026-05-06 17:27 | 31.02030 | 29.70083 | 8932 ft | 307 kts | 142° |
| 2026-05-06 17:28 | 31.00312 | 29.71591 | 8541 ft | 306 kts | 142° |
| 2026-05-06 17:28 | 30.98615 | 29.73077 | 8252 ft | 303 kts | 142° |
| 2026-05-06 17:28 | 30.96934 | 29.74546 | 7917 ft | 300 kts | 142° |
| 2026-05-06 17:28 | 30.95283 | 29.75992 | 7559 ft | 299 kts | 142° |
| 2026-05-06 17:29 | 30.93617 | 29.77446 | 7243 ft | 296 kts | 142° |
| 2026-05-06 17:29 | 30.91975 | 29.78879 | 6941 ft | 293 kts | 142° |
| 2026-05-06 17:29 | 30.90363 | 29.80287 | 6586 ft | 292 kts | 141° |
| 2026-05-06 17:29 | 30.88733 | 29.81714 | 6217 ft | 292 kts | 141° |
| 2026-05-06 17:30 | 30.87103 | 29.83138 | 5644 ft | 297 kts | 143° |
| 2026-05-06 17:30 | 30.85410 | 29.84616 | 4849 ft | 310 kts | 143° |
| 2026-05-06 17:30 | 30.83652 | 29.86152 | 4205 ft | 316 kts | 142° |
| 2026-05-06 17:30 | 30.81881 | 29.87589 | 4019 ft | 304 kts | 153° |
| 2026-05-06 17:31 | 30.79889 | 29.88165 | 3454 ft | 302 kts | 183° |
| 2026-05-06 17:31 | 30.77902 | 29.87471 | 2756 ft | 297 kts | 217° |
| 2026-05-06 17:31 | 30.76592 | 29.85735 | 2276 ft | 280 kts | 251° |
| 2026-05-06 17:31 | 30.76374 | 29.83638 | 2024 ft | 253 kts | 287° |
| 2026-05-06 17:32 | 30.77213 | 29.82022 | 1996 ft | 222 kts | 324° |
| 2026-05-06 17:32 | 30.78473 | 29.81126 | 2020 ft | 206 kts | 330° |
| 2026-05-06 17:32 | 30.79648 | 29.80223 | 2010 ft | 204 kts | 326° |
| 2026-05-06 17:32 | 30.80728 | 29.79311 | 2017 ft | 176 kts | 325° |
| 2026-05-06 17:33 | 30.81637 | 29.78516 | 2025 ft | 155 kts | 325° |
| 2026-05-06 17:33 | 30.82470 | 29.77786 | 2009 ft | 146 kts | 325° |
| 2026-05-06 17:33 | 30.83276 | 29.77080 | 1972 ft | 145 kts | 325° |
| 2026-05-06 17:33 | 30.84073 | 29.76379 | 1742 ft | 143 kts | 325° |
| 2026-05-06 17:34 | 30.84857 | 29.75691 | 1545 ft | 142 kts | 325° |
| 2026-05-06 17:34 | 30.85644 | 29.74999 | 1363 ft | 141 kts | 325° |
| 2026-05-06 17:34 | 30.86430 | 29.74310 | 1173 ft | 141 kts | 324° |
| 2026-05-06 17:34 | 30.87214 | 29.73621 | 997 ft | 141 kts | 326° |
| 2026-05-06 17:35 | 30.87995 | 29.72928 | 832 ft | 140 kts | 326° |
| 2026-05-06 17:35 | 30.88779 | 29.72239 | 630 ft | 140 kts | 324° |
| 2026-05-06 17:35 | 30.89555 | 29.71556 | 404 ft | 142 kts | 322° |
| 2026-05-06 17:36 | 30.91121 | 29.70178 | 192 ft | 125 kts | 322° |
| 2026-05-06 17:36 | 30.91698 | 29.69673 | 190 ft | 79 kts | 324° |
| 2026-05-06 17:36 | 30.92010 | 29.69406 | 193 ft | 41 kts | 323° |
| 2026-05-06 17:36 | 30.92159 | 29.69280 | 192 ft | 11 kts | 337° |
| 2026-05-06 17:37 | 30.92216 | 29.69329 | 192 ft | 11 kts | 52° |
| 2026-05-06 17:37 | 30.92264 | 29.69404 | 192 ft | 12 kts | 53° |
| 2026-05-06 17:37 | 30.92315 | 29.69484 | 195 ft | 13 kts | 54° |
| 2026-05-06 17:37 | 30.92375 | 29.69577 | 183 ft | 16 kts | 53° |
| 2026-05-06 17:38 | 30.92445 | 29.69686 | 188 ft | 17 kts | 53° |
| 2026-05-06 17:38 | 30.92513 | 29.69766 | 183 ft | 12 kts | 5° |
| 2026-05-06 17:38 | 30.92570 | 29.69735 | 183 ft | 0 kts | 325° |
| 2026-05-06 17:38 | 30.92576 | 29.69731 | 183 ft | 2 kts | 325° |
| 2026-05-06 17:39 | 30.92597 | 29.69714 | 182 ft | 5 kts | 323° |
| 2026-05-06 17:39 | 30.92630 | 29.69684 | 182 ft | 7 kts | 322° |
| 2026-05-06 17:39 | 30.92674 | 29.69644 | 181 ft | 9 kts | 322° |
| 2026-05-06 17:39 | 30.92731 | 29.69593 | 180 ft | 12 kts | 322° |
| 2026-05-06 17:40 | 30.92812 | 29.69541 | 171 ft | 11 kts | 4° |
| 2026-05-06 17:40 | 30.92874 | 29.69599 | 168 ft | 13 kts | 50° |
| 2026-05-06 17:40 | 30.92957 | 29.69609 | 170 ft | 12 kts | 327° |
| 2026-05-06 17:40 | 30.93025 | 29.69549 | 170 ft | 13 kts | 323° |
| 2026-05-06 17:41 | 30.93100 | 29.69485 | 170 ft | 10 kts | 323° |
| 2026-05-06 17:41 | 30.93138 | 29.69452 | 170 ft | 5 kts | 329° |
| 2026-05-06 17:41 | 30.93153 | 29.69467 | 170 ft | 3 kts | 49° |
| 2026-05-06 17:41 | 30.93169 | 29.69492 | 170 ft | 4 kts | 54° |
| 2026-05-06 17:42 | 30.93186 | 29.69518 | 170 ft | 2 kts | 53° |
| 2026-05-06 17:42 | 30.93195 | 29.69533 | 170 ft | 1 kts | 54° |
| 2026-05-06 17:42 | 30.93202 | 29.69544 | 170 ft | 0 kts | 54° |